Time;durP1;ratioP1;P1;durP2;ratioP2;P2;SDS_P1;SDS_P2;PMS_P1;PMS_P2;Temp;Humidity;BMP_temperature;BMP_pressure;BME280_temperature;BME280_humidity;BME280_pressure;Samples;Min_cycle;Max_cycle;Signal;HPM_P1;HPM_P2
2022/12/07 00:01:14;;;;;;;9.30;5.70;;;4.50;69.20;;;;;;5062029;28;46402;-71
2022/12/07 00:03:41;;;;;;;9.25;5.85;;;4.50;69.20;;;;;;5080269;27;47755;-68
2022/12/07 00:06:09;;;;;;;9.02;5.45;;;4.50;68.30;;;;;;5071842;27;46425;-68
2022/12/07 00:08:35;;;;;;;9.20;5.77;;;4.50;69.30;;;;;;5065646;28;46369;-67
2022/12/07 00:11:06;;;;;;;8.13;5.60;;;4.40;69.30;;;;;;5069023;28;46483;-70
2022/12/07 00:13:33;;;;;;;8.27;5.60;;;4.50;69.20;;;;;;5074944;27;48260;-69
2022/12/07 00:16:08;;;;;;;10.40;5.80;;;4.40;68.40;;;;;;5068404;28;46323;-68
2022/12/07 00:18:34;;;;;;;9.10;5.73;;;4.40;69.40;;;;;;5064985;28;45902;-69
2022/12/07 00:21:12;;;;;;;10.30;6.63;;;4.30;69.50;;;;;;5067419;28;46333;-68
2022/12/07 00:23:39;;;;;;;8.53;5.80;;;4.40;69.60;;;;;;5068935;28;47729;-70
2022/12/07 00:26:19;;;;;;;10.48;6.22;;;4.40;68.40;;;;;;5070104;28;46370;-68
2022/12/07 00:28:47;;;;;;;10.52;6.75;;;4.40;69.40;;;;;;5069123;28;46533;-68
2022/12/07 00:31:14;;;;;;;8.47;6.40;;;4.40;69.30;;;;;;5067903;28;46521;-68
2022/12/07 00:33:40;;;;;;;7.10;5.00;;;4.40;69.30;;;;;;5066887;28;47364;-67
2022/12/07 00:36:09;;;;;;;8.03;5.47;;;4.40;68.20;;;;;;5069405;28;46491;-69
2022/12/07 00:38:36;;;;;;;8.80;5.35;;;4.40;69.20;;;;;;5078757;27;46252;-70
2022/12/07 00:41:05;;;;;;;9.23;5.40;;;4.40;69.20;;;;;;5086262;27;45959;-68
2022/12/07 00:43:31;;;;;;;10.52;6.40;;;4.40;69.20;;;;;;5068282;28;48925;-69
2022/12/07 00:45:57;;;;;;;10.27;5.20;;;4.40;68.20;;;;;;5068432;28;46436;-68
2022/12/07 00:48:23;;;;;;;7.93;5.80;;;4.30;69.30;;;;;;5067602;28;46418;-68
2022/12/07 00:50:50;;;;;;;8.33;5.13;;;4.30;69.30;;;;;;5070315;28;46509;-68
2022/12/07 00:53:16;;;;;;;8.30;6.00;;;4.30;69.30;;;;;;5068125;28;47746;-68
2022/12/07 00:55:42;;;;;;;9.25;5.78;;;4.40;68.20;;;;;;5068903;28;46751;-69
2022/12/07 00:58:08;;;;;;;8.85;5.55;;;4.40;69.30;;;;;;5078326;27;45911;-69
2022/12/07 01:00:36;;;;;;;8.57;5.73;;;4.40;69.20;;;;;;5069182;28;46487;-67
2022/12/07 01:03:02;;;;;;;7.70;5.67;;;4.40;69.30;;;;;;5067413;28;47960;-68
2022/12/07 01:05:27;;;;;;;10.17;6.17;;;4.30;68.30;;;;;;5067609;28;46620;-68
2022/12/07 01:07:53;;;;;;;10.80;6.43;;;4.40;69.40;;;;;;5070070;28;46461;-69
2022/12/07 01:10:19;;;;;;;10.90;5.83;;;4.40;69.50;;;;;;5069805;28;46471;-70
2022/12/07 01:12:45;;;;;;;8.57;5.83;;;4.40;69.30;;;;;;5067448;28;48123;-70
2022/12/07 01:15:11;;;;;;;9.40;6.07;;;4.40;68.10;;;;;;5069836;28;46366;-70
2022/12/07 01:17:37;;;;;;;8.17;5.73;;;4.40;69.10;;;;;;5067255;28;46459;-69
2022/12/07 01:20:03;;;;;;;8.27;5.73;;;4.40;69.00;;;;;;5088290;27;46399;-68
2022/12/07 01:22:29;;;;;;;8.07;5.55;;;4.40;69.00;;;;;;5066741;27;49093;-69
2022/12/07 01:24:54;;;;;;;8.20;5.50;;;4.40;68.00;;;;;;5069822;28;47318;-72
2022/12/07 01:27:20;;;;;;;7.93;5.33;;;4.40;69.00;;;;;;5079133;27;46498;-68
2022/12/07 01:29:46;;;;;;;9.10;5.47;;;4.40;69.00;;;;;;5071233;28;46678;-68
2022/12/07 01:32:12;;;;;;;16.37;5.70;;;4.40;69.10;;;;;;5070925;27;48405;-69
2022/12/07 01:34:38;;;;;;;8.43;5.77;;;4.40;69.20;;;;;;5067094;28;46363;-68
2022/12/07 01:37:04;;;;;;;10.10;5.80;;;4.40;69.20;;;;;;5070026;28;46478;-68
2022/12/07 01:39:30;;;;;;;10.60;6.10;;;4.40;69.20;;;;;;5069304;28;46370;-68
2022/12/07 01:41:55;;;;;;;7.40;5.67;;;4.40;69.20;;;;;;5070772;28;46420;-68
2022/12/07 01:44:27;;;;;;;7.47;5.50;;;4.40;68.30;;;;;;5070404;28;46020;-68
2022/12/07 01:47:01;;;;;;;7.97;5.70;;;4.40;69.30;;;;;;5070448;28;46546;-68
2022/12/07 01:49:41;;;;;;;9.97;5.70;;;4.30;69.00;;;;;;5067888;28;46629;-67
2022/12/07 01:52:25;;;;;;;10.10;5.95;;;4.30;69.20;;;;;;5067936;28;48080;-68
2022/12/07 01:54:59;;;;;;;13.45;6.50;;;4.30;69.20;;;;;;5066188;28;46463;-70
2022/12/07 01:57:25;;;;;;;9.82;5.50;;;4.30;69.40;;;;;;5065707;28;46354;-70
2022/12/07 01:59:52;;;;;;;8.47;5.50;;;4.30;69.40;;;;;;5061476;27;46410;-68
2022/12/07 02:02:24;;;;;;;6.60;4.87;;;4.20;69.30;;;;;;5070416;28;47723;-70
2022/12/07 02:04:52;;;;;;;6.82;5.05;;;4.20;68.40;;;;;;5066178;28;46386;-68
2022/12/07 02:07:19;;;;;;;26.90;6.15;;;4.20;69.40;;;;;;5065820;28;46407;-70
2022/12/07 02:09:45;;;;;;;8.10;5.60;;;4.20;69.30;;;;;;5069222;28;46650;-67
2022/12/07 02:12:11;;;;;;;7.70;5.07;;;4.20;70.50;;;;;;5068555;28;47975;-70
2022/12/07 02:14:37;;;;;;;8.90;5.60;;;4.20;69.40;;;;;;5081918;27;46303;-68
2022/12/07 02:17:05;;;;;;;8.10;5.50;;;4.20;69.50;;;;;;5071320;28;46718;-70
2022/12/07 02:20:02;;;;;;;6.40;4.93;;;4.20;69.50;;;;;;5067607;28;46365;-69
2022/12/07 02:22:49;;;;;;;7.63;5.37;;;4.20;69.50;;;;;;5085091;27;46536;-70
2022/12/07 02:25:33;;;;;;;8.88;5.05;;;4.20;68.60;;;;;;5065348;28;46308;-68
2022/12/07 02:28:33;;;;;;;7.60;5.13;;;4.20;69.60;;;;;;5072091;28;46435;-69
2022/12/07 02:31:14;;;;;;;9.27;5.72;;;4.20;69.40;;;;;;5070287;28;45939;-71
2022/12/07 02:33:53;;;;;;;8.87;4.73;;;4.20;69.50;;;;;;5067456;28;48042;-70
2022/12/07 02:36:34;;;;;;;6.70;4.95;;;4.20;68.50;;;;;;5070372;28;46486;-69
2022/12/07 02:39:18;;;;;;;10.15;5.10;;;4.20;69.50;;;;;;5085800;27;45929;-68
2022/12/07 02:41:51;;;;;;;7.33;5.10;;;4.20;69.40;;;;;;5063689;28;46502;-70
2022/12/07 02:44:21;;;;;;;8.13;5.37;;;4.30;68.30;;;;;;5066014;28;48860;-68
2022/12/07 02:46:58;;;;;;;8.02;5.25;;;4.30;69.30;;;;;;5067744;28;46347;-69
2022/12/07 02:49:27;;;;;;;7.80;5.15;;;4.30;69.30;;;;;;5070925;28;46464;-71
2022/12/07 02:51:53;;;;;;;9.07;5.40;;;4.30;69.20;;;;;;5068225;28;46366;-69
2022/12/07 02:54:20;;;;;;;7.30;4.80;;;4.30;68.40;;;;;;5080142;27;49224;-69
2022/12/07 02:56:55;;;;;;;8.40;5.53;;;4.30;69.40;;;;;;5065461;28;46428;-68
2022/12/07 02:59:26;;;;;;;11.07;5.97;;;4.30;69.20;;;;;;5067301;28;46543;-68
2022/12/07 03:02:13;;;;;;;7.93;5.20;;;4.30;69.20;;;;;;5069674;28;46371;-68
2022/12/07 03:05:04;;;;;;;9.27;6.20;;;4.40;69.30;;;;;;5063029;28;47799;-70
2022/12/07 03:07:48;;;;;;;10.98;6.68;;;4.40;69.10;;;;;;5067671;28;46432;-69
2022/12/07 03:10:55;;;;;;;8.57;5.90;;;4.40;70.40;;;;;;5066729;28;46414;-70
2022/12/07 03:13:42;;;;;;;9.57;6.70;;;4.40;69.20;;;;;;5081020;27;46521;-70
2022/12/07 03:16:33;;;;;;;10.17;6.37;;;4.30;68.10;;;;;;5070951;28;47285;-70
2022/12/07 03:19:12;;;;;;;11.50;7.32;;;4.30;69.20;;;;;;5069502;28;46339;-68
2022/12/07 03:21:47;;;;;;;11.30;7.25;;;4.30;69.20;;;;;;5062688;28;46450;-70
2022/12/07 03:24:16;;;;;;;12.07;7.00;;;4.30;69.10;;;;;;5066662;28;46301;-67
2022/12/07 03:27:01;;;;;;;11.13;7.07;;;4.30;69.00;;;;;;5068905;28;47604;-70
2022/12/07 03:29:51;;;;;;;12.55;7.68;;;4.30;69.10;;;;;;5064318;28;46391;-68
2022/12/07 03:32:25;;;;;;;12.73;8.05;;;4.30;69.10;;;;;;5058199;28;46646;-68
2022/12/07 03:34:54;;;;;;;11.17;6.73;;;4.30;69.00;;;;;;5064717;28;46553;-68
2022/12/07 03:37:48;;;;;;;11.90;7.10;;;4.10;69.30;;;;;;5064167;28;46342;-70
2022/12/07 03:40:34;;;;;;;10.68;7.00;;;4.10;70.60;;;;;;5066953;28;46588;-70
2022/12/07 03:43:01;;;;;;;13.57;7.43;;;4.10;69.50;;;;;;5068209;28;46480;-67
2022/12/07 03:46:13;;;;;;;11.37;7.00;;;4.00;68.60;;;;;;5065752;28;46424;-69
2022/12/07 03:48:50;;;;;;;10.93;7.85;;;4.00;70.90;;;;;;5041024;27;46583;-70
2022/12/07 03:51:26;;;;;;;14.45;7.32;;;4.10;69.60;;;;;;5063141;28;46386;-69
2022/12/07 03:54:00;;;;;;;12.30;7.40;;;4.00;69.60;;;;;;5064843;28;46715;-67
2022/12/07 03:56:28;;;;;;;15.10;8.00;;;4.00;68.40;;;;;;5070095;27;46428;-68
2022/12/07 03:58:54;;;;;;;10.90;7.50;;;4.00;69.40;;;;;;5083447;27;48055;-69
2022/12/07 04:01:20;;;;;;;10.17;7.07;;;4.10;69.40;;;;;;5073862;27;46362;-70
2022/12/07 04:03:46;;;;;;;10.93;8.33;;;4.10;69.40;;;;;;5072941;28;46336;-68
2022/12/07 04:06:12;;;;;;;13.73;7.80;;;4.00;68.30;;;;;;5077072;28;46588;-68
2022/12/07 04:08:37;;;;;;;11.37;7.47;;;4.10;69.50;;;;;;5069553;28;47295;-68
2022/12/07 04:11:03;;;;;;;11.50;6.93;;;4.10;69.30;;;;;;5072238;28;46401;-69
2022/12/07 04:13:29;;;;;;;12.50;7.70;;;4.10;69.20;;;;;;5076009;28;46410;-69
2022/12/07 04:15:54;;;;;;;14.80;7.63;;;4.00;68.20;;;;;;5073028;28;46448;-70
2022/12/07 04:18:20;;;;;;;13.87;7.10;;;4.00;69.40;;;;;;5072144;28;48347;-69
2022/12/07 04:20:46;;;;;;;13.83;7.93;;;4.00;69.40;;;;;;5073551;28;46430;-68
2022/12/07 04:23:12;;;;;;;10.35;7.13;;;3.90;69.40;;;;;;5072116;28;45930;-68
2022/12/07 04:25:38;;;;;;;13.17;8.40;;;3.90;68.30;;;;;;5084245;27;46455;-68
2022/12/07 04:28:04;;;;;;;13.00;8.23;;;3.90;69.40;;;;;;5071864;28;49073;-67
2022/12/07 04:30:29;;;;;;;12.10;8.00;;;4.00;69.50;;;;;;5082317;27;45973;-69
2022/12/07 04:32:58;;;;;;;10.00;7.03;;;3.90;69.60;;;;;;5071934;28;46429;-67
2022/12/07 04:35:24;;;;;;;14.17;8.97;;;3.90;68.70;;;;;;5074123;28;46377;-69
2022/12/07 04:37:49;;;;;;;10.90;6.97;;;3.90;69.60;;;;;;5075573;28;49214;-67
2022/12/07 04:40:15;;;;;;;12.30;7.57;;;3.90;69.70;;;;;;5073029;27;46587;-67
2022/12/07 04:42:41;;;;;;;11.87;6.97;;;3.90;69.70;;;;;;5068464;28;46445;-68
2022/12/07 04:45:07;;;;;;;11.37;7.93;;;3.90;69.80;;;;;;5071011;28;46582;-68
2022/12/07 04:47:33;;;;;;;11.60;7.25;;;3.90;69.80;;;;;;5072377;28;48247;-69
2022/12/07 04:49:59;;;;;;;15.23;8.50;;;3.90;69.70;;;;;;5073798;28;46357;-69
2022/12/07 04:52:24;;;;;;;12.30;8.07;;;3.80;69.60;;;;;;5071317;28;46429;-68
2022/12/07 04:54:50;;;;;;;13.47;8.27;;;3.90;71.00;;;;;;5070434;28;46603;-68
2022/12/07 04:57:16;;;;;;;12.80;7.53;;;3.80;69.80;;;;;;5072669;28;47462;-67
2022/12/07 04:59:41;;;;;;;14.37;7.90;;;3.80;69.70;;;;;;5070606;28;46444;-69
2022/12/07 05:02:07;;;;;;;12.10;7.40;;;3.90;69.80;;;;;;5071655;28;46376;-68
2022/12/07 05:04:33;;;;;;;13.50;7.83;;;3.90;69.70;;;;;;5073449;28;46432;-68
2022/12/07 05:06:58;;;;;;;13.20;8.30;;;3.90;69.70;;;;;;5072139;27;47365;-67
2022/12/07 05:09:24;;;;;;;13.00;8.53;;;3.90;69.70;;;;;;5069728;27;46397;-68
2022/12/07 05:11:50;;;;;;;11.77;7.57;;;3.90;69.80;;;;;;5069655;28;45893;-68
2022/12/07 05:14:20;;;;;;;11.10;7.17;;;3.90;68.90;;;;;;5064540;28;46482;-68
2022/12/07 05:16:49;;;;;;;11.80;7.50;;;3.90;70.00;;;;;;5069877;28;46730;-68
2022/12/07 05:19:15;;;;;;;13.35;8.15;;;3.80;69.80;;;;;;5069892;28;46667;-68
2022/12/07 05:21:41;;;;;;;14.63;9.27;;;3.80;69.90;;;;;;5069116;28;46409;-69
2022/12/07 05:24:09;;;;;;;14.23;8.90;;;3.90;68.80;;;;;;5067591;27;46019;-68
2022/12/07 05:26:35;;;;;;;12.37;8.20;;;3.90;70.00;;;;;;5077425;27;49339;-69
2022/12/07 05:29:00;;;;;;;13.73;8.17;;;3.90;69.90;;;;;;5067479;28;46405;-68
2022/12/07 05:31:27;;;;;;;14.10;9.07;;;3.90;69.90;;;;;;5083938;27;46492;-68
2022/12/07 05:33:52;;;;;;;14.13;8.30;;;3.90;69.80;;;;;;5067798;28;45838;-68
2022/12/07 05:36:18;;;;;;;12.57;8.20;;;3.90;68.80;;;;;;5068047;28;47998;-68
2022/12/07 05:38:44;;;;;;;13.10;7.90;;;3.90;70.00;;;;;;5071133;28;46454;-69
2022/12/07 05:43:58;;;;;;;550.67;290.57;;;4.00;70.10;;;;;;5072153;28;46564;-68
2022/12/07 05:46:24;;;;;;;32.60;16.60;;;4.30;68.80;;;;;;5064920;28;49286;-68
2022/12/07 05:48:50;;;;;;;22.37;12.97;;;4.50;69.60;;;;;;5067999;28;46389;-68
2022/12/07 05:51:16;;;;;;;24.93;13.37;;;4.50;69.50;;;;;;5071511;28;46466;-69
2022/12/07 05:53:41;;;;;;;21.83;11.07;;;4.50;69.90;;;;;;5068637;28;46544;-68
2022/12/07 05:56:07;;;;;;;25.77;13.33;;;4.30;69.10;;;;;;5086160;27;48022;-68
2022/12/07 06:01:17;;;;;;;16.10;10.20;;;4.30;70.50;;;;;;5067899;28;46395;-67
2022/12/07 06:03:43;;;;;;;19.77;10.43;;;4.20;70.60;;;;;;5065677;28;46500;-70
2022/12/07 06:06:08;;;;;;;12.47;8.00;;;4.10;69.60;;;;;;5063659;28;48187;-70
2022/12/07 06:08:34;;;;;;;17.23;10.80;;;4.10;70.70;;;;;;5065566;28;46346;-67
2022/12/07 06:13:44;;;;;;;16.80;9.57;;;4.10;70.70;;;;;;5065609;28;46753;-68
2022/12/07 06:16:09;;;;;;;20.17;11.90;;;4.10;69.70;;;;;;5064581;28;48344;-68
2022/12/07 06:18:35;;;;;;;15.87;9.17;;;4.10;70.80;;;;;;5062347;27;46464;-68
2022/12/07 06:21:01;;;;;;;19.97;10.37;;;4.10;70.80;;;;;;5067783;28;46761;-67
2022/12/07 06:23:26;;;;;;;16.80;9.93;;;4.10;71.00;;;;;;5062487;28;45988;-68
2022/12/07 06:25:52;;;;;;;18.40;10.60;;;4.10;70.00;;;;;;5066766;28;46675;-67
2022/12/07 06:28:18;;;;;;;19.53;11.10;;;4.10;71.00;;;;;;5066025;28;46468;-69
2022/12/07 06:30:43;;;;;;;19.93;10.20;;;4.00;70.80;;;;;;5072383;27;46416;-68
2022/12/07 06:33:09;;;;;;;16.43;9.90;;;4.00;71.10;;;;;;5069032;27;46535;-67
2022/12/07 06:35:35;;;;;;;15.60;9.40;;;4.00;71.20;;;;;;5069591;28;48721;-69
2022/12/07 06:38:01;;;;;;;18.47;10.83;;;4.00;71.10;;;;;;5085808;27;46409;-69
2022/12/07 06:40:26;;;;;;;16.07;9.57;;;3.90;71.00;;;;;;5078731;27;46337;-68
2022/12/07 06:42:52;;;;;;;19.07;10.73;;;3.90;71.10;;;;;;5065884;28;46340;-68
2022/12/07 06:45:18;;;;;;;15.43;8.97;;;3.90;70.10;;;;;;5067504;28;49118;-68
2022/12/07 06:47:43;;;;;;;15.27;10.03;;;3.90;71.30;;;;;;5067450;28;46391;-70
2022/12/07 06:50:09;;;;;;;15.23;9.83;;;3.90;71.40;;;;;;5068883;28;46434;-68
2022/12/07 06:52:35;;;;;;;15.10;9.60;;;3.90;71.10;;;;;;5069858;28;46635;-68
2022/12/07 06:55:00;;;;;;;17.90;9.80;;;3.90;70.10;;;;;;5060877;28;48818;-68
2022/12/07 06:57:26;;;;;;;15.60;9.97;;;3.90;71.20;;;;;;5066793;28;46539;-69
2022/12/07 06:59:52;;;;;;;17.60;9.60;;;3.80;71.10;;;;;;5067925;28;46523;-70
2022/12/07 07:02:18;;;;;;;16.77;9.43;;;3.80;71.10;;;;;;5065043;27;46509;-69
2022/12/07 07:04:44;;;;;;;19.73;9.97;;;3.80;71.10;;;;;;5066261;28;47734;-69
2022/12/07 07:07:10;;;;;;;15.07;9.67;;;3.70;71.20;;;;;;5066431;28;46402;-67
2022/12/07 07:09:36;;;;;;;17.70;9.75;;;3.70;71.50;;;;;;5065040;28;45913;-68
2022/12/07 07:12:02;;;;;;;16.50;10.47;;;3.70;71.40;;;;;;5078138;27;46376;-68
2022/12/07 07:14:29;;;;;;;21.75;10.90;;;3.70;71.50;;;;;;5062151;28;48120;-68
2022/12/07 07:16:55;;;;;;;19.70;11.95;;;3.70;71.50;;;;;;5060467;28;46862;-70
2022/12/07 07:19:21;;;;;;;50.80;26.10;;;3.70;71.40;;;;;;5058287;28;45934;-69
2022/12/07 07:21:48;;;;;;;37.33;21.52;;;3.80;71.20;;;;;;5065169;28;45958;-68
2022/12/07 07:24:14;;;;;;;40.10;25.87;;;3.70;70.40;;;;;;5062837;28;48529;-69
2022/12/07 07:26:40;;;;;;;20.47;11.90;;;3.70;71.50;;;;;;5080720;27;46414;-68
2022/12/07 07:29:05;;;;;;;19.87;11.33;;;3.60;72.90;;;;;;5062260;28;46663;-68
2022/12/07 07:31:31;;;;;;;19.83;12.30;;;3.60;73.00;;;;;;5064460;28;46365;-68
2022/12/07 07:33:57;;;;;;;17.53;10.30;;;3.60;71.60;;;;;;5063847;28;48038;-68
2022/12/07 07:36:23;;;;;;;19.17;11.70;;;3.70;70.40;;;;;;5064178;28;46365;-68
2022/12/07 07:38:48;;;;;;;19.73;11.80;;;3.70;71.50;;;;;;5066572;28;46425;-69
2022/12/07 07:41:14;;;;;;;18.47;12.10;;;3.80;71.30;;;;;;5059489;28;46362;-68
2022/12/07 07:43:40;;;;;;;16.50;10.73;;;3.80;71.50;;;;;;5077396;27;48310;-68
2022/12/07 07:46:05;;;;;;;18.07;11.63;;;3.80;71.50;;;;;;5080116;28;46500;-68
2022/12/07 07:48:31;;;;;;;16.97;11.27;;;3.80;71.30;;;;;;5076628;28;45889;-67
2022/12/07 07:50:58;;;;;;;18.27;11.70;;;3.80;71.20;;;;;;5071892;28;46110;-68
2022/12/07 07:53:23;;;;;;;18.47;11.93;;;4.10;71.60;;;;;;5066316;28;46422;-68
2022/12/07 07:55:53;;;;;;;19.73;11.33;;;3.80;70.10;;;;;;5067854;28;46496;-70
2022/12/07 07:58:19;;;;;;;19.92;12.10;;;3.80;71.10;;;;;;5074151;27;46349;-68
2022/12/07 08:00:45;;;;;;;20.17;11.97;;;3.80;71.30;;;;;;5066550;28;46431;-68
2022/12/07 08:03:10;;;;;;;20.03;11.63;;;3.80;71.50;;;;;;5062503;28;47763;-67
2022/12/07 08:05:37;;;;;;;21.53;12.80;;;3.90;71.30;;;;;;5063973;28;47144;-68
2022/12/07 08:08:03;;;;;;;21.20;11.75;;;3.90;71.30;;;;;;5083947;27;46507;-69
2022/12/07 08:10:29;;;;;;;21.27;12.40;;;4.00;71.20;;;;;;5064433;27;46548;-67
2022/12/07 08:15:41;;;;;;;19.67;12.35;;;4.00;71.40;;;;;;5063550;28;46471;-67
2022/12/07 08:18:07;;;;;;;20.60;12.48;;;4.00;71.40;;;;;;5077911;27;46477;-68
2022/12/07 08:20:35;;;;;;;21.47;12.77;;;4.00;71.30;;;;;;5065208;28;46582;-68
2022/12/07 08:23:01;;;;;;;19.90;11.82;;;4.00;71.30;;;;;;5058352;28;47779;-69
2022/12/07 08:25:27;;;;;;;19.40;12.00;;;4.00;70.50;;;;;;5065831;28;46480;-69
2022/12/07 08:27:53;;;;;;;368.97;155.27;;;4.00;71.40;;;;;;5066015;28;46723;-68
2022/12/07 08:30:20;;;;;;;21.37;12.80;;;4.10;71.20;;;;;;5065924;28;46453;-68
2022/12/07 08:32:46;;;;;;;21.97;12.63;;;4.20;71.30;;;;;;5074459;27;46383;-69
2022/12/07 08:35:12;;;;;;;27.60;11.73;;;4.20;71.30;;;;;;5064853;27;46471;-69
2022/12/07 08:37:39;;;;;;;19.65;11.98;;;4.20;71.40;;;;;;5062503;28;46564;-67
2022/12/07 08:40:06;;;;;;;18.50;11.77;;;4.20;71.60;;;;;;5068507;27;46026;-67
2022/12/07 08:42:37;;;;;;;162.70;70.95;;;4.20;71.70;;;;;;5067635;27;47786;-69
2022/12/07 08:45:09;;;;;;;22.38;13.32;;;4.20;71.90;;;;;;5067365;28;46521;-67
2022/12/07 08:47:43;;;;;;;20.50;11.55;;;4.30;71.80;;;;;;5067317;28;46453;-70
2022/12/07 08:50:11;;;;;;;22.17;13.47;;;4.40;71.60;;;;;;5068295;28;46603;-67
2022/12/07 08:52:37;;;;;;;25.33;14.67;;;4.50;71.50;;;;;;5076300;27;48921;-70
2022/12/07 08:55:04;;;;;;;21.95;13.85;;;4.40;70.60;;;;;;5067867;28;46418;-68
2022/12/07 08:57:34;;;;;;;30.95;17.40;;;4.40;71.80;;;;;;5069257;28;46561;-67
2022/12/07 09:00:00;;;;;;;22.23;12.90;;;4.20;72.30;;;;;;5078468;27;46030;-68
2022/12/07 09:02:26;;;;;;;30.97;17.07;;;4.10;72.60;;;;;;5074612;27;48732;-68
2022/12/07 09:04:51;;;;;;;29.70;15.55;;;4.10;71.80;;;;;;5067820;28;46418;-67
2022/12/07 09:07:17;;;;;;;22.83;12.97;;;4.10;72.90;;;;;;5068948;28;46239;-67
2022/12/07 09:09:43;;;;;;;24.83;14.40;;;4.00;72.80;;;;;;5066825;28;46521;-69
2022/12/07 09:12:10;;;;;;;27.23;15.70;;;4.00;72.80;;;;;;5068528;28;46927;-69
2022/12/07 09:14:35;;;;;;;27.17;14.55;;;4.00;72.80;;;;;;5067850;28;46697;-69
2022/12/07 09:17:19;;;;;;;24.73;14.00;;;4.00;72.80;;;;;;5083596;27;46348;-69
2022/12/07 09:19:45;;;;;;;26.43;14.33;;;4.10;72.70;;;;;;5066262;28;46427;-68
2022/12/07 09:22:11;;;;;;;20.80;12.13;;;4.20;72.20;;;;;;5067820;28;47830;-69
2022/12/07 09:24:36;;;;;;;24.63;12.30;;;4.30;72.10;;;;;;5067985;28;46456;-69
2022/12/07 09:27:02;;;;;;;20.47;12.50;;;4.30;72.00;;;;;;5076427;27;46361;-69
2022/12/07 09:29:28;;;;;;;22.80;13.83;;;4.30;72.00;;;;;;5071571;28;46818;-69
2022/12/07 09:31:53;;;;;;;22.23;12.60;;;4.30;72.20;;;;;;5066526;28;48233;-68
2022/12/07 09:34:20;;;;;;;19.40;12.20;;;4.30;71.30;;;;;;5068793;28;46508;-69
2022/12/07 09:36:45;;;;;;;28.02;13.90;;;4.30;72.30;;;;;;5069144;28;46171;-69
2022/12/07 09:39:11;;;;;;;19.67;11.90;;;4.30;72.50;;;;;;5069230;28;46712;-67
2022/12/07 09:41:40;;;;;;;22.43;12.20;;;4.30;72.40;;;;;;5067396;28;48033;-67
2022/12/07 09:44:12;;;;;;;21.48;11.98;;;4.30;72.20;;;;;;5066897;28;46448;-68
2022/12/07 09:46:40;;;;;;;24.70;12.35;;;4.40;71.90;;;;;;5067215;28;46611;-70
2022/12/07 09:49:16;;;;;;;26.53;11.87;;;4.50;71.70;;;;;;5077107;27;46398;-70
2022/12/07 09:51:42;;;;;;;17.93;10.57;;;4.60;71.60;;;;;;5066344;28;47815;-67
2022/12/07 09:54:12;;;;;;;19.57;11.67;;;4.80;70.30;;;;;;5064873;28;46393;-68
2022/12/07 09:56:38;;;;;;;22.83;11.65;;;4.80;71.30;;;;;;5067427;28;46394;-70
2022/12/07 09:59:03;;;;;;;19.73;11.57;;;4.80;71.20;;;;;;5065814;28;46409;-67
2022/12/07 10:01:32;;;;;;;96.37;46.00;;;4.90;71.20;;;;;;5068815;27;46640;-69
2022/12/07 10:04:20;;;;;;;22.27;13.77;;;4.80;71.10;;;;;;5075560;27;46539;-70
2022/12/07 10:06:47;;;;;;;35.58;17.33;;;4.90;71.10;;;;;;5065256;28;46545;-69
2022/12/07 10:09:15;;;;;;;24.60;14.83;;;5.00;71.20;;;;;;5067914;28;46410;-67
2022/12/07 10:12:11;;;;;;;16.93;10.40;;;4.90;71.20;;;;;;5076184;27;48249;-67
2022/12/07 10:14:54;;;;;;;16.70;10.15;;;4.80;70.50;;;;;;5068744;28;46550;-68
2022/12/07 10:17:31;;;;;;;35.00;16.63;;;4.80;71.50;;;;;;5078128;27;46394;-69
2022/12/07 10:20:18;;;;;;;19.23;11.47;;;4.80;71.70;;;;;;5064972;28;46650;-67
2022/12/07 10:23:05;;;;;;;19.70;10.60;;;4.80;71.70;;;;;;5088996;27;47935;-69
2022/12/07 10:25:34;;;;;;;20.53;11.53;;;4.80;71.80;;;;;;5067138;28;46424;-67
2022/12/07 10:28:07;;;;;;;19.43;11.40;;;4.70;72.00;;;;;;5067902;28;46437;-69
2022/12/07 10:30:45;;;;;;;19.60;10.73;;;4.70;71.90;;;;;;5066959;28;46497;-68
2022/12/07 10:33:49;;;;;;;21.30;10.73;;;4.70;72.00;;;;;;5068467;28;46780;-70
2022/12/07 10:36:22;;;;;;;20.73;10.20;;;4.70;70.80;;;;;;5068397;28;45803;-68
2022/12/07 10:38:58;;;;;;;21.30;10.63;;;4.60;71.90;;;;;;5066564;28;46481;-70
2022/12/07 10:41:24;;;;;;;17.43;9.87;;;4.60;71.90;;;;;;5064402;27;46760;-68
2022/12/07 10:43:53;;;;;;;16.70;9.50;;;4.60;72.00;;;;;;5067698;28;48182;-67
2022/12/07 10:46:28;;;;;;;14.73;8.70;;;4.60;70.60;;;;;;5065777;28;46379;-69
2022/12/07 10:49:16;;;;;;;22.00;10.73;;;4.60;71.70;;;;;;5067189;28;46481;-68
2022/12/07 10:52:03;;;;;;;17.90;10.37;;;4.60;71.50;;;;;;5072580;28;46483;-68
2022/12/07 10:54:29;;;;;;;13.60;8.17;;;4.50;71.50;;;;;;5066169;28;48814;-70
2022/12/07 10:57:05;;;;;;;15.10;9.30;;;4.40;71.80;;;;;;5069565;27;46462;-69
2022/12/07 11:00:02;;;;;;;14.93;8.83;;;4.40;71.70;;;;;;5065777;28;46501;-68
2022/12/07 11:02:54;;;;;;;14.10;8.90;;;4.50;71.30;;;;;;5053283;28;46877;-68
2022/12/07 11:05:51;;;;;;;15.50;9.05;;;4.50;70.00;;;;;;5065161;28;48009;-70
2022/12/07 11:08:37;;;;;;;15.90;9.38;;;4.50;71.10;;;;;;5041292;28;46564;-69
2022/12/07 11:11:23;;;;;;;16.93;8.80;;;4.60;71.10;;;;;;5060126;28;46405;-67
2022/12/07 11:14:14;;;;;;;13.23;7.73;;;4.60;70.80;;;;;;5064600;28;46945;-69
2022/12/07 11:16:39;;;;;;;13.23;7.90;;;4.70;70.60;;;;;;5064887;28;46914;-69
2022/12/07 11:19:14;;;;;;;13.70;8.10;;;4.70;70.60;;;;;;5067963;28;46611;-69
2022/12/07 11:21:42;;;;;;;10.50;7.00;;;4.70;70.50;;;;;;5065441;28;46468;-68
2022/12/07 11:24:54;;;;;;;12.37;7.10;;;4.70;70.20;;;;;;5068613;28;46459;-68
2022/12/07 11:27:32;;;;;;;12.13;7.47;;;4.70;69.80;;;;;;5036254;28;47984;-70
2022/12/07 11:30:15;;;;;;;11.17;6.90;;;4.60;69.60;;;;;;5068796;28;46448;-69
2022/12/07 11:32:49;;;;;;;15.27;8.43;;;4.60;69.40;;;;;;5083373;27;46466;-69
2022/12/07 11:35:14;;;;;;;11.40;6.80;;;4.60;69.70;;;;;;5064817;28;46162;-68
2022/12/07 11:37:43;;;;;;;14.93;8.50;;;4.70;69.60;;;;;;5067458;28;47911;-69
2022/12/07 11:40:20;;;;;;;11.27;7.20;;;4.80;69.20;;;;;;5064303;28;46592;-68
2022/12/07 11:42:58;;;;;;;11.70;6.83;;;4.80;69.10;;;;;;5076480;27;46456;-69
2022/12/07 11:45:28;;;;;;;12.70;7.77;;;4.70;67.40;;;;;;5064950;28;46597;-68
2022/12/07 11:47:58;;;;;;;12.17;6.93;;;4.60;68.40;;;;;;5064440;28;46334;-68
2022/12/07 11:50:36;;;;;;;13.83;8.93;;;4.60;68.80;;;;;;5064999;28;46450;-70
2022/12/07 11:53:08;;;;;;;12.10;7.10;;;4.70;68.80;;;;;;5071034;28;46521;-69
2022/12/07 11:55:58;;;;;;;11.20;7.23;;;4.80;67.50;;;;;;5066434;28;46335;-69
2022/12/07 11:58:33;;;;;;;14.20;8.13;;;4.80;68.40;;;;;;5062701;28;47796;-70
2022/12/07 12:01:22;;;;;;;11.13;7.53;;;5.10;68.10;;;;;;5065463;28;46635;-69
2022/12/07 12:03:56;;;;;;;12.50;7.77;;;5.20;67.60;;;;;;5052750;28;46672;-69
2022/12/07 12:06:22;;;;;;;11.93;7.90;;;5.40;66.30;;;;;;5064360;28;46416;-68
2022/12/07 12:09:01;;;;;;;12.90;7.77;;;5.60;67.10;;;;;;5065871;27;46678;-70
2022/12/07 12:11:39;;;;;;;12.67;7.30;;;5.70;66.10;;;;;;5078977;27;45940;-67
2022/12/07 12:14:30;;;;;;;13.37;7.13;;;5.90;66.30;;;;;;5066850;28;46500;-69
2022/12/07 12:16:55;;;;;;;11.53;6.60;;;6.00;65.90;;;;;;5068173;28;46813;-70
2022/12/07 12:19:24;;;;;;;12.70;7.50;;;6.20;65.70;;;;;;5067830;28;47933;-70
2022/12/07 12:21:56;;;;;;;11.17;6.77;;;6.50;65.40;;;;;;5066265;27;46448;-70
2022/12/07 12:24:30;;;;;;;10.10;6.00;;;6.70;62.30;;;;;;5068252;28;46488;-67
2022/12/07 12:27:09;;;;;;;16.00;5.83;;;6.70;63.00;;;;;;5072672;28;46422;-69
2022/12/07 12:29:37;;;;;;;22.20;12.90;;;6.70;62.60;;;;;;5069168;28;48582;-67
2022/12/07 12:32:16;;;;;;;11.63;6.90;;;6.80;62.60;;;;;;5085868;27;45936;-69
2022/12/07 12:34:48;;;;;;;9.70;5.80;;;7.00;61.50;;;;;;5068162;28;46818;-69
2022/12/07 12:37:33;;;;;;;11.70;6.07;;;7.00;62.10;;;;;;5071448;28;46377;-68
2022/12/07 12:40:14;;;;;;;10.13;5.47;;;7.00;60.90;;;;;;5068619;28;47786;-68
2022/12/07 12:42:51;;;;;;;11.43;7.27;;;6.90;60.10;;;;;;5070563;28;46443;-70
2022/12/07 12:45:26;;;;;;;9.23;5.60;;;6.90;59.60;;;;;;5069226;28;46441;-68
2022/12/07 12:48:21;;;;;;;10.73;6.07;;;6.90;58.90;;;;;;5069376;28;46406;-68
2022/12/07 12:50:47;;;;;;;9.93;5.33;;;6.80;58.30;;;;;;5065876;28;48100;-68
2022/12/07 12:53:20;;;;;;;44.07;22.87;;;6.70;58.30;;;;;;5067661;28;45827;-68
2022/12/07 12:56:19;;;;;;;16.70;8.83;;;6.80;57.30;;;;;;5069927;28;46552;-68
2022/12/07 12:58:47;;;;;;;10.23;5.13;;;6.80;58.50;;;;;;5069418;28;46421;-70
2022/12/07 13:01:42;;;;;;;9.07;5.93;;;6.80;57.70;;;;;;5068071;28;48824;-69
2022/12/07 13:04:39;;;;;;;11.10;5.80;;;6.70;57.80;;;;;;5068270;28;46482;-68
2022/12/07 13:07:11;;;;;;;10.23;6.00;;;6.80;58.10;;;;;;5062624;28;46378;-68
2022/12/07 13:09:42;;;;;;;14.27;6.00;;;6.90;58.20;;;;;;5069134;28;46685;-70
2022/12/07 13:12:16;;;;;;;11.53;6.33;;;6.90;57.70;;;;;;5063923;28;46439;-68
2022/12/07 13:14:41;;;;;;;10.87;6.50;;;6.70;57.50;;;;;;5076964;27;46441;-69
2022/12/07 13:17:31;;;;;;;12.13;6.13;;;6.70;59.10;;;;;;5066652;27;46393;-68